Ana Sayfa
METAR-TAF:

METAR-TAF

Havaalanları :

Larnaka Uluslararası Havalimanı

Larnaka, Kıbrıs

Enlem: 34-53N, Boylam: 033-38E, yükseklik: 2 m

Güncel hava durumu gözlemi

Rapor saat 14:00 UTC de 24 dakika önce yapıldı.
Rüzgar batı/kuzeybatıdan 12 kt, batı ve kuzey/kuzeybatı arasında değişken
Sıcaklık 19°C
Nem 28%
Basınç 1012 hPa
Görüş mesafesi 10 km veya daha fazla
2500 ft yükseklikte az bulutlu

METAR: LCLK 211400Z 30012KT 260V330 9999 FEW025 19/00 Q1012 NOSIG

Saat: 17:24 (14:24 UTC)

Tahmin

Rapor saat 11:30 UTC de 2 saat ve 54 dakika önce yapıldı.
Ayın 21'si saat 12 UTC'den ayın 22'si saat 12 UTC'ye kadar geçerli Tahmin
Rüzgar kuzey/kuzeybatıdan 12 kt
Görüş mesafesi 10 km veya daha fazla
3000 ft yükseklikte az bulutlu
Dönüşüyor
ayın 22'si saat 10 UTC'den ayın 22'si saat 12 UTC'ye kadar
Rüzgar güney/güneybatıdan 14 kt

TAF: LCLK 211130Z 2112/2212 33012KT 9999 FEW030 BECMG 2210/2212 21014KT

4.000'den fazla havaalanı için hava durumu gözlemleri ve tahminleri (METAR ve TAF raporları).

Kullanılabilir istasyonlar harita üzerinde sarı ve kırmızı noktalarla gösterilir.

İstasyonun adını görmek için fareyi noktanın üzerinde gezdirin.

Sonrasında hava gözlem ve tahminlerini görmek için tıklayın.

Haritayı değiştirmek için: yaklaştırmak için siyah artı işaretli yeşil düğmeye ve uzaklaştırmak için de eksi işaretli düğmeye hızla tıklayın; bitişik haritalar için yeşil okları kullanın.


METAR-TAF: